Buckley Air Force Base Aurora US
ICAO: KBKF
IATA: BFK
Category: Medium
Scheduled Services: No

Elevation: 5662 ft
TransAlt. 18000 ft.

Airport Communications:
DENVER APP/DEP:128.45
ATIS:119.675
GND/CLNC DEL:121.6
PMSV METRO:22.845
PTD:37.22
TWR:121

KBKF Zoom In..

Runways:

(A) RW 14 length 11006 ft width 150 ft
---- / hdg 140

(B) RW 32 length 11006 ft width 150 ft
ILS 109.70 / hdg 320

Location; KBKF
Day. 26 / Time. 03.58 Zulu
* Altimeter: 30.02
* Temperature: 19° c. 66.2°f.
* Wind from: 130° Speed 11 kn.
Dewpoint: 05° c.
Visibility: 10 Statute Miles.
Clouds: Few 12000 ft.

KBKF 260358Z 13011KT 10SM FEW120 19/05 A3002 RMK AO2A SLP088 T01880045


Wind From 130°
Speed 11 kn.

 
 
jpsmedia.com for Web Design SOUNDCLOUD worldairports.se 2018   terms of use